Time;durP1;ratioP1;P1;durP2;ratioP2;P2;SDS_P1;SDS_P2;PMS_P1;PMS_P2;Temp;Humidity;BMP_temperature;BMP_pressure;BME280_temperature;BME280_humidity;BME280_pressure;Samples;Min_cycle;Max_cycle;Signal;HPM_P1;HPM_P2
2023/03/12 00:01:23;;;;;;;5.25;3.70;;;;;;;-0.49;91.72;100704.00;6083426;23;20025;-78
2023/03/12 00:03:50;;;;;;;5.63;3.70;;;;;;;0.54;93.18;100852.88;6110036;23;20236;-79
2023/03/12 00:06:17;;;;;;;4.03;3.83;;;;;;;0.08;93.38;100775.81;6104870;23;20025;-78
2023/03/12 00:08:44;;;;;;;3.65;3.45;;;;;;;-0.44;93.44;100681.63;6108565;23;20699;-79
2023/03/12 00:11:14;;;;;;;3.60;3.40;;;;;;;0.54;94.24;100877.00;6082330;23;20006;-79
2023/03/12 00:13:41;;;;;;;4.32;3.97;;;;;;;-0.24;94.79;100740.78;6081423;23;20174;-77
2023/03/12 00:16:11;;;;;;;8.43;3.97;;;;;;;-0.01;94.88;100754.38;6084161;23;20080;-79
2023/03/12 00:18:38;;;;;;;3.80;3.58;;;;;;;0.59;95.36;100851.13;6114087;23;20292;-81
2023/03/12 00:21:06;;;;;;;3.40;3.20;;;;;;;0.35;94.76;100803.97;6085500;23;20184;-79
2023/03/12 00:23:35;;;;;;;3.40;3.20;;;;;;;-0.51;94.97;100661.94;6113630;23;20387;-78
2023/03/12 00:26:05;;;;;;;3.67;3.42;;;;;;;-0.54;93.70;100655.06;6111233;23;20056;-79
2023/03/12 00:28:32;;;;;;;3.92;3.63;;;;;;;0.37;93.98;100791.91;6078422;23;20026;-79
2023/03/12 00:30:58;;;;;;;5.22;4.70;;;;;;;-0.13;93.62;100699.44;6108503;23;20041;-79
2023/03/12 00:33:25;;;;;;;3.80;3.58;;;;;;;-0.06;92.68;100721.72;6083272;23;20039;-80
2023/03/12 00:35:52;;;;;;;4.68;4.28;;;;;;;0.46;93.16;100787.53;6076760;23;20026;-80
2023/03/12 00:38:21;;;;;;;4.07;3.78;;;;;;;0.12;92.74;100725.88;6083885;23;20017;-78
2023/03/12 00:40:48;;;;;;;3.63;3.42;;;;;;;0.13;92.64;100714.72;6111910;23;20017;-78
2023/03/12 00:43:14;;;;;;;3.33;3.15;;;;;;;0.45;92.64;100766.03;6108174;23;20093;-79
2023/03/12 00:45:41;;;;;;;3.17;2.97;;;;;;;0.15;91.60;100738.78;6113563;23;20080;-81
2023/03/12 00:48:07;;;;;;;3.83;3.47;;;;;;;-2.25;91.81;100303.56;6109390;23;20045;-79
2023/03/12 00:50:33;;;;;;;4.05;3.75;;;;;;;0.50;91.86;100776.31;6088863;23;20085;-79
2023/03/12 00:53:00;;;;;;;3.00;2.90;;;;;;;-0.22;91.14;100615.25;6106857;23;20025;-79
2023/03/12 00:55:26;;;;;;;3.90;3.60;;;;;;;-0.79;90.26;100512.66;6079010;23;20034;-79
2023/03/12 00:57:53;;;;;;;3.38;3.17;;;;;;;-0.82;89.81;100502.41;6104171;23;20049;-78
2023/03/12 01:00:20;;;;;;;2.97;2.85;;;;;;;-0.01;90.06;100648.59;6074856;23;20550;-80
2023/03/12 01:02:47;;;;;;;3.80;3.60;;;;;;;0.91;89.79;100780.19;6111641;23;20652;-78
2023/03/12 01:05:13;;;;;;;4.10;3.80;;;;;;;0.39;89.54;100717.03;6108370;23;20043;-77
2023/03/12 01:07:40;;;;;;;3.30;3.20;;;;;;;0.16;89.52;100666.50;6112346;23;20025;-79
2023/03/12 01:10:08;;;;;;;3.95;3.75;;;;;;;0.90;89.36;100778.47;6113813;23;20045;-79
2023/03/12 01:12:35;;;;;;;4.93;4.18;;;;;;;-0.29;89.38;100574.94;6109391;23;20364;-80
2023/03/12 01:15:05;;;;;;;3.47;3.28;;;;;;;0.70;88.64;100739.94;6103107;23;20033;-78
2023/03/12 01:17:32;;;;;;;7.30;3.20;;;;;;;0.66;89.63;100743.44;6108872;23;22480;-80
2023/03/12 01:19:58;;;;;;;6.60;3.35;;;;;;;-0.08;89.14;100607.38;6083486;23;20356;-79
2023/03/12 01:22:25;;;;;;;3.47;3.17;;;;;;;0.19;89.02;100666.47;6115202;23;20308;-80
2023/03/12 01:24:51;;;;;;;3.05;2.95;;;;;;;0.71;89.11;100732.19;6105211;23;20021;-80
2023/03/12 01:27:19;;;;;;;4.82;4.50;;;;;;;0.08;88.76;100651.94;6091520;23;20022;-80
2023/03/12 01:29:45;;;;;;;3.70;3.40;;;;;;;0.59;89.01;100712.50;6109492;23;20029;-80
2023/03/12 01:32:12;;;;;;;3.67;3.35;;;;;;;0.01;87.85;100629.69;6064844;23;20523;-80
2023/03/12 01:34:38;;;;;;;4.70;4.30;;;;;;;0.40;87.69;100674.84;6112163;23;20026;-79
2023/03/12 01:37:06;;;;;;;3.15;3.05;;;;;;;0.29;86.97;100662.06;6108617;23;20557;-79
2023/03/12 01:39:32;;;;;;;3.15;2.97;;;;;;;-0.01;87.20;100583.25;6081288;23;20017;-80
2023/03/12 01:42:00;;;;;;;3.00;2.90;;;;;;;-0.04;87.28;100583.28;6104604;23;20100;-78
2023/03/12 01:44:28;;;;;;;4.28;3.90;;;;;;;-0.67;87.02;100514.28;6102530;23;20038;-79
2023/03/12 01:46:54;;;;;;;3.25;3.08;;;;;;;0.73;87.74;100712.38;6102376;23;20630;-79
2023/03/12 01:49:28;;;;;;;3.92;3.63;;;;;;;0.68;87.98;100710.69;6101481;23;20232;-78
2023/03/12 01:52:02;;;;;;;3.67;3.47;;;;;;;0.47;88.21;100680.81;6083003;23;20166;-79
2023/03/12 01:54:50;;;;;;;3.40;3.20;;;;;;;0.66;89.06;100713.31;6085100;23;20025;-80
2023/03/12 01:57:56;;;;;;;3.50;3.20;;;;;;;-0.16;89.24;100579.13;6087909;23;20245;-80
2023/03/12 02:00:25;;;;;;;2.97;2.83;;;;;;;0.25;89.57;100675.88;6070692;23;20111;-78
2023/03/12 02:02:58;;;;;;;3.13;3.03;;;;;;;0.45;90.26;100687.72;6054052;23;20036;-79
2023/03/12 02:05:37;;;;;;;2.85;2.75;;;;;;;0.14;90.33;100639.00;6105592;23;20017;-79
2023/03/12 02:08:03;;;;;;;2.95;2.85;;;;;;;-0.95;90.58;100441.53;6074768;23;20326;-79
2023/03/12 02:10:30;;;;;;;2.95;2.83;;;;;;;-0.47;90.57;100532.97;6109097;23;20262;-80
2023/03/12 02:12:56;;;;;;;3.55;3.35;;;;;;;0.04;90.37;100609.00;6105901;23;20498;-78
2023/03/12 02:15:23;;;;;;;3.30;3.20;;;;;;;0.64;90.92;100699.53;6059433;23;20447;-78
2023/03/12 02:17:50;;;;;;;2.83;2.67;;;;;;;0.16;90.68;100637.25;6111549;23;21035;-78
2023/03/12 02:20:22;;;;;;;3.20;3.00;;;;;;;0.18;90.92;100638.97;6108388;23;20767;-77
2023/03/12 02:22:59;;;;;;;3.13;2.95;;;;;;;0.04;91.36;100602.13;6090675;23;20032;-78
2023/03/12 02:25:36;;;;;;;3.00;2.90;;;;;;;0.45;90.92;100679.97;6090799;23;20029;-79
2023/03/12 02:28:05;;;;;;;3.55;3.35;;;;;;;-0.79;91.10;100453.41;6083474;23;20020;-77
2023/03/12 02:30:33;;;;;;;6.88;3.58;;;;;;;-1.35;90.76;100351.78;6109577;23;20584;-79
2023/03/12 02:33:03;;;;;;;3.13;3.03;;;;;;;0.31;91.22;100665.47;6111443;23;20224;-77
2023/03/12 02:35:30;;;;;;;3.67;3.47;;;;;;;0.82;91.51;100707.97;6113746;23;20582;-79
2023/03/12 02:37:57;;;;;;;3.33;2.95;;;;;;;-0.64;91.62;100497.06;6083537;23;20119;-81
2023/03/12 02:40:42;;;;;;;3.50;3.20;;;;;;;0.84;92.00;100706.22;6120481;23;20025;-76
2023/03/12 02:43:10;;;;;;;3.10;2.90;;;;;;;0.53;91.46;100675.59;6139427;23;20020;-76
2023/03/12 02:45:37;;;;;;;3.33;3.13;;;;;;;-0.42;91.15;100528.66;6112748;23;20167;-76
2023/03/12 02:48:07;;;;;;;3.50;3.30;;;;;;;0.23;91.38;100613.09;6139466;23;20025;-76
2023/03/12 02:50:34;;;;;;;2.92;2.83;;;;;;;0.36;91.68;100627.59;6109620;23;20025;-77
2023/03/12 02:53:00;;;;;;;3.10;3.00;;;;;;;0.10;91.29;100575.38;6102333;23;20615;-77
2023/03/12 02:55:26;;;;;;;5.43;3.95;;;;;;;-0.84;91.74;100421.69;6113702;23;20014;-79
2023/03/12 02:57:53;;;;;;;4.00;3.67;;;;;;;-0.11;91.84;100530.91;6087257;23;20025;-78
2023/03/12 03:00:20;;;;;;;3.55;3.35;;;;;;;0.90;91.59;100686.34;6108125;23;20376;-80
2023/03/12 03:02:46;;;;;;;3.00;2.90;;;;;;;0.22;91.23;100582.13;6084315;23;20029;-79
2023/03/12 03:05:12;;;;;;;3.67;3.47;;;;;;;0.73;91.55;100663.28;6104203;23;20193;-79
2023/03/12 03:07:39;;;;;;;3.55;3.35;;;;;;;0.02;92.02;100554.84;6099770;23;20498;-79
2023/03/12 03:10:09;;;;;;;3.35;3.15;;;;;;;0.30;92.74;100575.16;6130432;23;20097;-79
2023/03/12 03:12:36;;;;;;;3.20;3.00;;;;;;;0.41;92.34;100593.13;6085844;23;20018;-79
2023/03/12 03:15:04;;;;;;;3.63;3.42;;;;;;;-0.19;92.42;100537.03;6107937;23;20057;-78
2023/03/12 03:17:30;;;;;;;2.90;2.80;;;;;;;0.77;92.02;100651.19;6082296;23;20037;-79
2023/03/12 03:19:57;;;;;;;2.90;2.80;;;;;;;0.25;92.63;100567.47;6092593;23;20030;-79
2023/03/12 03:22:25;;;;;;;3.25;3.10;;;;;;;-0.66;91.24;100413.78;6089158;23;20100;-78
2023/03/12 03:24:53;;;;;;;2.90;2.80;;;;;;;0.96;90.99;100675.94;6106657;23;20026;-79
2023/03/12 03:27:19;;;;;;;3.55;3.35;;;;;;;0.99;90.99;100670.69;6089315;23;20527;-79
2023/03/12 03:29:46;;;;;;;3.33;3.13;;;;;;;0.96;91.13;100667.31;6063863;23;20018;-79
2023/03/12 03:32:12;;;;;;;3.00;2.90;;;;;;;0.09;92.13;100532.41;6105681;23;20037;-81
2023/03/12 03:34:39;;;;;;;3.58;3.28;;;;;;;0.62;91.38;100600.56;6084668;23;20637;-79
2023/03/12 03:37:05;;;;;;;2.88;2.78;;;;;;;1.01;90.91;100662.09;6082202;23;20110;-78
2023/03/12 03:39:33;;;;;;;3.13;2.92;;;;;;;0.49;90.44;100576.66;6108750;23;20087;-79
2023/03/12 03:41:59;;;;;;;3.30;3.20;;;;;;;1.01;90.39;100678.44;6079272;23;20443;-79
2023/03/12 03:44:26;;;;;;;2.70;2.60;;;;;;;-0.29;90.14;100439.13;6087685;23;20034;-78
2023/03/12 03:46:54;;;;;;;3.78;3.47;;;;;;;0.67;90.26;100608.28;6082192;23;20026;-79
2023/03/12 03:49:21;;;;;;;3.65;3.45;;;;;;;1.06;89.87;100663.72;6086510;23;20017;-79
2023/03/12 03:51:50;;;;;;;3.75;3.55;;;;;;;-0.17;90.00;100463.91;6055023;23;20681;-79
2023/03/12 03:58:07;;;;;;;2.50;2.40;;;;;;;-0.27;89.85;100436.53;6076957;23;20390;-77
2023/03/12 04:00:34;;;;;;;2.90;2.78;;;;;;;0.24;90.35;100521.03;6107125;23;20041;-78
2023/03/12 04:03:01;;;;;;;3.20;3.10;;;;;;;-0.08;89.84;100468.97;6106205;23;20084;-80
2023/03/12 04:05:27;;;;;;;3.67;3.45;;;;;;;0.49;90.13;100571.47;6078538;23;20058;-78
2023/03/12 04:07:54;;;;;;;3.10;3.00;;;;;;;0.14;89.62;100521.16;6110708;23;20017;-79
2023/03/12 04:10:23;;;;;;;3.58;3.38;;;;;;;0.20;90.01;100497.00;6113276;23;20232;-78
2023/03/12 04:12:50;;;;;;;3.00;2.90;;;;;;;0.76;89.86;100596.09;6105901;23;20029;-78
2023/03/12 04:15:17;;;;;;;3.28;3.08;;;;;;;1.10;90.29;100631.81;6079640;23;20395;-79
2023/03/12 04:17:43;;;;;;;2.80;2.70;;;;;;;1.07;90.33;100631.84;6107078;23;20390;-79
2023/03/12 04:20:10;;;;;;;3.72;3.55;;;;;;;0.25;89.71;100495.22;6111376;23;20413;-78
2023/03/12 04:22:37;;;;;;;3.63;3.42;;;;;;;1.32;89.59;100646.97;6110437;23;20296;-79
2023/03/12 04:25:07;;;;;;;4.60;3.65;;;;;;;0.64;89.66;100541.16;6109890;23;20033;-79
2023/03/12 04:27:34;;;;;;;2.92;2.83;;;;;;;0.25;89.05;100476.31;6108571;23;20559;-78
2023/03/12 04:30:00;;;;;;;3.40;3.22;;;;;;;0.31;89.39;100478.81;6085645;23;20364;-80
2023/03/12 04:32:26;;;;;;;2.70;2.60;;;;;;;1.20;89.33;100617.00;6108371;23;20029;-78
2023/03/12 04:34:53;;;;;;;2.80;2.70;;;;;;;0.94;88.81;100578.63;6104732;23;20220;-79
2023/03/12 04:37:31;;;;;;;3.50;3.08;;;;;;;0.70;87.72;100520.41;6059876;23;20049;-78
2023/03/12 04:39:58;;;;;;;3.28;3.15;;;;;;;0.68;87.62;100502.38;6107427;23;20049;-78
2023/03/12 04:42:26;;;;;;;2.92;2.83;;;;;;;-0.69;87.24;100268.66;6084018;23;20762;-76
2023/03/12 04:44:53;;;;;;;2.83;2.63;;;;;;;0.76;87.28;100504.81;6118900;23;20219;-78
2023/03/12 04:47:19;;;;;;;3.20;3.05;;;;;;;0.92;87.15;100524.41;6102206;23;20210;-79
2023/03/12 04:49:46;;;;;;;3.15;3.05;;;;;;;1.21;87.94;100592.88;6108010;23;20034;-82
2023/03/12 04:52:12;;;;;;;2.90;2.80;;;;;;;0.97;88.41;100563.94;6085924;23;20025;-79
2023/03/12 04:54:39;;;;;;;3.38;3.17;;;;;;;1.26;89.00;100614.31;6089208;23;20569;-77
2023/03/12 04:57:05;;;;;;;3.97;3.67;;;;;;;1.22;89.15;100604.91;6114731;23;20013;-77
2023/03/12 04:59:31;;;;;;;2.90;2.80;;;;;;;0.55;89.48;100500.84;6084086;23;20024;-77
2023/03/12 05:01:58;;;;;;;3.85;3.42;;;;;;;0.96;90.54;100571.69;6107715;23;20025;-80
2023/03/12 05:04:24;;;;;;;2.80;2.70;;;;;;;0.57;91.22;100512.00;6108379;23;20308;-80
2023/03/12 05:06:51;;;;;;;2.97;2.88;;;;;;;1.06;91.38;100583.59;6086595;23;20046;-80
2023/03/12 05:09:17;;;;;;;3.05;2.95;;;;;;;0.70;92.71;100513.53;6083492;23;20085;-78
2023/03/12 05:11:44;;;;;;;3.15;3.00;;;;;;;0.73;94.60;100510.91;6107653;23;20029;-77
2023/03/12 05:14:11;;;;;;;3.17;3.08;;;;;;;1.41;95.56;100621.00;6110419;23;20306;-78
2023/03/12 05:16:37;;;;;;;2.90;2.80;;;;;;;0.78;97.04;100570.22;6078503;23;20432;-78
2023/03/12 05:19:05;;;;;;;3.25;3.08;;;;;;;1.36;98.81;100643.47;6089152;23;20025;-80
2023/03/12 05:21:32;;;;;;;3.10;3.00;;;;;;;-0.15;99.65;100395.13;6085199;23;20014;-78
2023/03/12 05:23:58;;;;;;;3.45;3.25;;;;;;;1.36;100.00;100653.81;6105961;23;20319;-78
2023/03/12 05:26:28;;;;;;;3.30;3.15;;;;;;;0.36;100.00;100477.00;6107856;23;20029;-78
2023/03/12 05:28:54;;;;;;;2.97;2.80;;;;;;;0.17;100.00;100446.28;6114344;23;20033;-78
2023/03/12 05:31:20;;;;;;;4.40;4.20;;;;;;;0.45;100.00;100507.84;6107272;23;20335;-78
2023/03/12 05:33:47;;;;;;;3.55;3.35;;;;;;;-1.86;100.00;100102.72;6107673;23;20025;-78
2023/03/12 05:36:17;;;;;;;3.00;2.80;;;;;;;-0.52;100.00;100344.03;6110158;23;20017;-77
2023/03/12 05:38:43;;;;;;;3.28;2.90;;;;;;;0.79;100.00;100551.28;6107968;23;20108;-77
2023/03/12 05:41:25;;;;;;;3.55;3.35;;;;;;;0.81;100.00;100561.59;6085960;23;20006;-80
2023/03/12 05:43:52;;;;;;;2.67;2.58;;;;;;;0.82;100.00;100558.97;6114195;23;20094;-78
2023/03/12 05:46:19;;;;;;;2.80;2.70;;;;;;;0.12;100.00;100462.69;6083290;23;20029;-78
2023/03/12 05:48:48;;;;;;;3.83;3.58;;;;;;;1.02;100.00;100594.84;6112305;23;20033;-79
2023/03/12 05:51:15;;;;;;;3.25;3.05;;;;;;;0.21;100.00;100447.09;6112763;23;20229;-79
2023/03/12 05:53:42;;;;;;;3.35;3.15;;;;;;;0.73;100.00;100528.97;6117446;23;20170;-81
2023/03/12 05:56:12;;;;;;;3.22;3.03;;;;;;;1.15;100.00;100600.72;6120956;23;20062;-79
2023/03/12 05:58:39;;;;;;;2.85;2.75;;;;;;;0.52;100.00;100475.94;6113988;23;20559;-80
2023/03/12 06:01:15;;;;;;;3.40;3.22;;;;;;;1.27;100.00;100597.94;6098854;23;20336;-79
2023/03/12 06:03:41;;;;;;;2.78;2.67;;;;;;;0.72;100.00;100508.31;6116489;23;20036;-79
2023/03/12 06:06:09;;;;;;;2.70;2.60;;;;;;;0.22;100.00;100443.66;6113674;23;20482;-79
2023/03/12 06:08:36;;;;;;;3.10;3.00;;;;;;;1.09;100.00;100583.56;6089986;23;20233;-79
2023/03/12 06:11:02;;;;;;;2.80;2.70;;;;;;;-0.10;100.00;100387.31;6111780;23;20491;-79
2023/03/12 06:13:29;;;;;;;2.70;2.60;;;;;;;1.13;100.00;100587.81;6088011;23;20041;-79
2023/03/12 06:16:03;;;;;;;2.97;2.88;;;;;;;-0.42;100.00;100340.47;6093027;23;20100;-78
2023/03/12 06:18:31;;;;;;;2.75;2.65;;;;;;;0.43;100.00;100480.38;6095746;23;20045;-79
2023/03/12 06:21:16;;;;;;;2.80;2.70;;;;;;;0.48;100.00;100492.34;6120825;23;20021;-79
2023/03/12 06:23:44;;;;;;;3.35;3.15;;;;;;;0.49;100.00;100494.03;6119684;23;20065;-79
2023/03/12 06:26:11;;;;;;;3.00;2.90;;;;;;;1.12;100.00;100634.34;6092815;23;20063;-77
2023/03/12 06:28:38;;;;;;;2.90;2.80;;;;;;;1.16;100.00;100580.03;6118860;23;20022;-78
2023/03/12 06:31:06;;;;;;;3.22;3.03;;;;;;;0.59;100.00;100551.56;6116693;23;20274;-78
2023/03/12 06:33:33;;;;;;;3.08;2.97;;;;;;;0.56;100.00;100515.44;6090593;23;20027;-78
2023/03/12 06:36:01;;;;;;;3.33;3.15;;;;;;;0.68;100.00;100507.53;6089374;23;20018;-79
2023/03/12 06:38:28;;;;;;;2.80;2.70;;;;;;;0.50;100.00;100482.84;6116922;23;20021;-80
2023/03/12 06:40:57;;;;;;;2.63;2.53;;;;;;;0.54;100.00;100465.56;6111325;23;20626;-79
2023/03/12 06:43:26;;;;;;;3.03;2.85;;;;;;;0.27;100.00;100416.03;6108576;23;20523;-79
2023/03/12 06:45:54;;;;;;;2.83;2.72;;;;;;;0.92;100.00;100519.25;6117565;23;20029;-79
2023/03/12 06:48:24;;;;;;;2.88;2.78;;;;;;;0.18;100.00;100393.81;6067046;23;20088;-79
2023/03/12 06:50:53;;;;;;;2.80;2.70;;;;;;;0.48;100.00;100450.16;6119459;23;20162;-78
2023/03/12 06:53:20;;;;;;;2.70;2.60;;;;;;;1.37;100.00;100594.34;6114614;23;20049;-78
2023/03/12 06:55:49;;;;;;;2.70;2.60;;;;;;;0.97;100.00;100524.31;6091203;23;20057;-78
2023/03/12 06:58:16;;;;;;;2.80;2.70;;;;;;;1.45;100.00;100594.22;6111289;23;20092;-78
2023/03/12 07:00:43;;;;;;;3.00;2.90;;;;;;;0.46;100.00;100436.41;6117150;23;20029;-79
2023/03/12 07:03:10;;;;;;;2.95;2.85;;;;;;;0.35;100.00;100403.88;6095024;23;20036;-78
2023/03/12 07:05:36;;;;;;;2.97;2.85;;;;;;;-0.08;100.00;100344.28;6126096;23;20192;-78
2023/03/12 07:08:02;;;;;;;3.78;3.50;;;;;;;0.01;100.00;100345.91;6120783;23;20559;-79
2023/03/12 07:10:29;;;;;;;8.55;3.45;;;;;;;0.56;100.00;100431.09;6093232;23;20021;-79
2023/03/12 07:12:56;;;;;;;2.92;2.83;;;;;;;1.57;100.00;100594.00;6101462;23;20033;-79
2023/03/12 07:15:25;;;;;;;3.47;3.28;;;;;;;0.99;100.00;100492.41;6117526;23;20459;-79
2023/03/12 07:17:51;;;;;;;2.80;2.70;;;;;;;-0.57;100.00;100209.19;6097682;23;20653;-78
2023/03/12 07:20:18;;;;;;;3.03;2.83;;;;;;;1.52;100.00;100551.00;6115749;23;20244;-79
2023/03/12 07:22:44;;;;;;;2.90;2.70;;;;;;;1.50;100.00;100542.41;6084116;23;20038;-79
2023/03/12 07:25:11;;;;;;;3.80;3.60;;;;;;;0.15;100.00;100325.91;6089163;23;20032;-79
2023/03/12 07:27:37;;;;;;;3.42;3.17;;;;;;;1.78;100.00;100573.81;6091271;23;20022;-79
2023/03/12 07:30:05;;;;;;;3.10;2.88;;;;;;;1.02;100.00;100465.66;6021216;23;20022;-79
2023/03/12 07:32:32;;;;;;;3.75;3.53;;;;;;;1.80;100.00;100572.03;6091040;23;20675;-79
2023/03/12 07:34:58;;;;;;;3.00;2.80;;;;;;;0.98;100.00;100430.41;6063141;23;20030;-79
2023/03/12 07:37:25;;;;;;;3.00;2.90;;;;;;;1.40;100.00;100505.50;6110690;23;20576;-79
2023/03/12 07:39:53;;;;;;;2.92;2.83;;;;;;;1.78;100.00;100555.69;6114973;23;20025;-80
2023/03/12 07:42:20;;;;;;;3.08;2.95;;;;;;;0.46;100.00;100375.34;6097570;23;20036;-79
2023/03/12 07:44:48;;;;;;;3.10;3.00;;;;;;;1.25;100.00;100469.59;6114942;23;20037;-79
2023/03/12 07:47:16;;;;;;;3.40;3.20;;;;;;;1.55;100.00;100486.28;6113585;23;20021;-78
2023/03/12 07:49:50;;;;;;;3.10;2.80;;;;;;;1.93;100.00;100552.84;6096906;23;20063;-78
2023/03/12 07:52:18;;;;;;;3.55;3.35;;;;;;;1.68;100.00;100505.00;6084618;23;21652;-78
2023/03/12 07:54:45;;;;;;;3.20;3.00;;;;;;;1.73;100.00;100498.88;6117068;23;20014;-78
2023/03/12 07:57:12;;;;;;;3.20;3.10;;;;;;;1.29;100.00;100448.00;6086622;23;20009;-80
2023/03/12 07:59:39;;;;;;;3.42;3.22;;;;;;;1.63;100.00;100481.00;6087685;23;20455;-81
2023/03/12 08:02:05;;;;;;;3.72;3.53;;;;;;;2.07;100.00;100554.31;6083496;23;20369;-77
2023/03/12 08:04:32;;;;;;;2.92;2.78;;;;;;;1.65;100.00;100474.91;6083992;23;20061;-78
2023/03/12 08:06:58;;;;;;;3.63;3.42;;;;;;;1.97;100.00;100546.72;6084426;23;20010;-79
2023/03/12 08:09:25;;;;;;;3.97;3.63;;;;;;;2.07;100.00;100520.66;6084153;23;20036;-78
2023/03/12 08:11:51;;;;;;;3.15;3.05;;;;;;;2.08;100.00;100506.81;6059830;23;20056;-78
2023/03/12 08:14:18;;;;;;;3.10;2.90;;;;;;;0.86;100.00;100304.88;6061191;23;20053;-81
2023/03/12 08:16:44;;;;;;;3.10;3.00;;;;;;;1.87;100.00;100484.84;6081516;23;20057;-81
2023/03/12 08:19:11;;;;;;;3.90;3.60;;;;;;;1.11;100.00;100341.47;6060584;23;20119;-81
2023/03/12 08:21:38;;;;;;;2.85;2.75;;;;;;;2.01;100.00;100490.59;6031898;23;20015;-77
2023/03/12 08:24:05;;;;;;;3.70;3.50;;;;;;;1.79;100.00;100439.25;6092699;23;20423;-78
2023/03/12 08:26:31;;;;;;;3.40;3.20;;;;;;;2.04;100.00;100482.75;6078596;23;20042;-80
2023/03/12 08:28:59;;;;;;;4.25;3.85;;;;;;;1.04;100.00;100326.09;6081598;23;20036;-77
2023/03/12 08:31:28;;;;;;;9.32;4.07;;;;;;;1.56;100.00;100371.59;6053556;23;20388;-77
2023/03/12 08:33:55;;;;;;;3.70;3.47;;;;;;;2.47;100.00;100507.72;6065583;23;20029;-80
2023/03/12 08:36:21;;;;;;;4.15;3.95;;;;;;;2.49;100.00;100508.56;6084504;23;20021;-78
2023/03/12 08:38:48;;;;;;;3.70;3.50;;;;;;;1.52;100.00;100344.94;6084357;23;20110;-77
2023/03/12 08:41:14;;;;;;;3.53;3.33;;;;;;;2.64;100.00;100504.75;6057911;23;20624;-78
2023/03/12 08:43:41;;;;;;;4.15;3.85;;;;;;;2.38;100.00;100489.78;6082728;23;20034;-78
2023/03/12 08:46:08;;;;;;;3.90;3.70;;;;;;;2.24;100.00;100471.13;6087577;23;20566;-77
2023/03/12 08:48:38;;;;;;;3.75;3.55;;;;;;;1.92;100.00;100415.72;6068058;23;20099;-78
2023/03/12 08:51:06;;;;;;;3.47;3.28;;;;;;;2.42;100.00;100498.34;6083504;23;20014;-78
2023/03/12 08:53:34;;;;;;;3.15;3.05;;;;;;;2.89;100.00;100537.91;6084760;23;20037;-76
2023/03/12 08:56:02;;;;;;;3.78;3.58;;;;;;;2.97;100.00;100539.44;6094865;23;20053;-79
2023/03/12 08:58:29;;;;;;;4.30;4.10;;;;;;;2.82;100.00;100518.19;6110908;23;20042;-78
2023/03/12 09:00:56;;;;;;;3.50;3.30;;;;;;;3.08;100.00;100549.53;6087831;23;20047;-77
2023/03/12 09:03:23;;;;;;;3.85;3.65;;;;;;;3.17;100.00;100554.50;6110839;23;20070;-76
2023/03/12 09:06:01;;;;;;;3.80;3.60;;;;;;;2.29;100.00;100401.97;6089643;23;20029;-79
2023/03/12 09:08:28;;;;;;;3.35;3.22;;;;;;;2.54;100.00;100446.28;6111802;23;20548;-78
2023/03/12 09:10:54;;;;;;;4.45;4.13;;;;;;;2.39;100.00;100429.34;6078853;23;20105;-78
2023/03/12 09:13:21;;;;;;;3.10;3.00;;;;;;;2.94;100.00;100525.69;6108218;23;20286;-79
2023/03/12 09:15:47;;;;;;;3.92;3.65;;;;;;;3.20;100.00;100536.25;6112126;23;20025;-79
2023/03/12 09:18:14;;;;;;;4.50;4.20;;;;;;;2.99;100.00;100513.47;6100107;23;20509;-81
2023/03/12 09:20:41;;;;;;;3.15;3.03;;;;;;;2.93;100.00;100493.72;6105914;23;20029;-77
2023/03/12 09:23:08;;;;;;;3.50;3.30;;;;;;;3.33;100.00;100530.81;6126982;23;20097;-76
2023/03/12 09:25:34;;;;;;;3.30;3.20;;;;;;;2.49;100.00;100384.22;6129293;23;20033;-76
2023/03/12 09:28:01;;;;;;;3.45;3.35;;;;;;;3.25;100.00;100496.41;6128099;23;20044;-78
2023/03/12 09:30:29;;;;;;;4.32;4.07;;;;;;;3.03;100.00;100472.75;6131415;23;20041;-77
2023/03/12 09:32:55;;;;;;;4.13;3.78;;;;;;;3.60;100.00;100543.03;6119066;23;20372;-77
2023/03/12 09:35:22;;;;;;;4.88;4.57;;;;;;;2.72;100.00;100383.66;6114015;23;20230;-76
2023/03/12 09:37:49;;;;;;;4.57;4.32;;;;;;;3.09;100.00;100455.31;6058595;23;20026;-79
2023/03/12 09:40:19;;;;;;;3.05;2.92;;;;;;;3.63;100.00;100517.91;6089367;23;20074;-79
2023/03/12 09:42:51;;;;;;;4.38;4.10;;;;;;;3.26;100.00;100446.25;6087617;23;20052;-78
2023/03/12 09:45:25;;;;;;;4.00;3.80;;;;;;;3.08;100.00;100401.75;6087005;23;20023;-76
2023/03/12 09:47:54;;;;;;;4.25;4.03;;;;;;;3.92;100.00;100512.78;6106829;23;20025;-78
2023/03/12 09:50:38;;;;;;;4.07;3.88;;;;;;;2.81;100.00;100335.94;6111065;23;20053;-77
2023/03/12 09:53:16;;;;;;;3.92;3.72;;;;;;;3.57;100.00;100496.44;6082590;23;20028;-77
2023/03/12 09:55:47;;;;;;;3.70;3.50;;;;;;;3.70;100.00;100476.19;6115578;23;20317;-77
2023/03/12 09:58:23;;;;;;;4.50;4.20;;;;;;;4.07;100.00;100526.22;6093944;23;20091;-76
2023/03/12 10:00:53;;;;;;;5.25;4.85;;;;;;;3.56;100.00;100448.00;6112201;23;20081;-79
2023/03/12 10:03:40;;;;;;;5.38;4.88;;;;;;;3.91;100.00;100476.47;6092294;23;20018;-76
2023/03/12 10:06:41;;;;;;;8.10;4.28;;;;;;;4.13;100.00;100505.28;6095196;23;20020;-80
2023/03/12 10:09:29;;;;;;;4.43;4.22;;;;;;;4.19;100.00;100512.94;6120675;23;20135;-76
2023/03/12 10:12:01;;;;;;;4.00;3.80;;;;;;;4.29;100.00;100513.47;6087286;23;21062;-77
2023/03/12 10:14:48;;;;;;;4.50;4.30;;;;;;;3.05;100.00;100300.75;6118512;23;20510;-79
2023/03/12 10:17:26;;;;;;;4.00;3.65;;;;;;;4.29;100.00;100505.69;6093293;23;20054;-79
2023/03/12 10:20:27;;;;;;;5.38;4.88;;;;;;;4.26;100.00;100508.41;6120326;23;20041;-79
2023/03/12 10:23:07;;;;;;;3.85;3.65;;;;;;;4.31;100.00;100506.50;6115767;23;20045;-76
2023/03/12 10:25:56;;;;;;;5.13;4.72;;;;;;;4.39;100.00;100507.16;6093728;23;20021;-77
2023/03/12 10:28:39;;;;;;;4.40;4.10;;;;;;;4.45;100.00;100513.88;6101289;23;20022;-78
2023/03/12 10:31:15;;;;;;;5.35;4.95;;;;;;;4.20;100.00;100468.69;6116630;23;20157;-78
2023/03/12 10:33:46;;;;;;;5.57;5.07;;;;;;;3.87;100.00;100417.75;6113688;23;20066;-78
2023/03/12 10:36:27;;;;;;;6.35;5.85;;;;;;;4.51;100.00;100500.69;6087337;23;20014;-80
2023/03/12 10:38:56;;;;;;;4.35;4.05;;;;;;;2.50;100.00;100183.03;6110753;23;20035;-76
2023/03/12 10:41:27;;;;;;;5.05;4.63;;;;;;;4.16;100.00;100411.72;6091017;23;20051;-79
2023/03/12 10:43:59;;;;;;;5.20;4.80;;;;;;;4.83;100.00;100517.06;6113962;23;20200;-76
2023/03/12 10:46:40;;;;;;;4.15;3.95;;;;;;;4.42;100.00;100439.47;6115992;23;20029;-77
2023/03/12 10:49:23;;;;;;;5.30;4.80;;;;;;;5.05;100.00;100518.09;6113400;23;20037;-79
2023/03/12 10:52:01;;;;;;;4.25;4.00;;;;;;;5.15;100.00;100527.31;6112208;23;20045;-77
2023/03/12 10:54:48;;;;;;;4.28;3.97;;;;;;;4.70;100.00;100449.00;6109947;23;20399;-78
2023/03/12 10:57:15;;;;;;;4.75;4.45;;;;;;;4.82;100.00;100461.63;6111066;23;20010;-77
2023/03/12 10:59:46;;;;;;;4.50;4.30;;;;;;;4.59;100.00;100436.34;6118540;23;20037;-78
2023/03/12 11:02:36;;;;;;;4.55;4.25;;;;;;;4.60;100.00;100406.88;6077865;23;20052;-78
2023/03/12 11:05:37;;;;;;;4.78;4.47;;;;;;;4.91;100.00;100455.25;6083805;23;20045;-77
2023/03/12 11:08:22;;;;;;;8.95;4.90;;;;;;;5.51;100.00;100513.09;6090650;23;20077;-80
2023/03/12 11:10:49;;;;;;;4.00;3.75;;;;;;;4.96;100.00;100407.41;6113483;23;20551;-78
2023/03/12 11:13:34;;;;;;;4.28;3.97;;;;;;;5.79;100.00;100499.97;6073676;23;20285;-76
2023/03/12 11:16:23;;;;;;;4.90;4.70;;;;;;;5.96;100.00;100507.22;6077704;23;20519;-76
2023/03/12 11:19:02;;;;;;;6.07;5.47;;;;;;;5.76;100.00;100445.41;6116380;23;20051;-78
2023/03/12 11:21:39;;;;;;;4.97;4.68;;;;;;;6.08;100.00;100495.50;6080186;23;20030;-77
2023/03/12 11:24:10;;;;;;;4.68;4.32;;;;;;;5.71;100.00;100390.91;6112565;23;20463;-78
2023/03/12 11:27:26;;;;;;;5.13;4.68;;;;;;;6.50;100.00;100484.38;6090421;23;20031;-78
2023/03/12 11:29:53;;;;;;;5.00;4.70;;;;;;;6.52;100.00;100420.84;6084815;23;20431;-81
2023/03/12 11:32:45;;;;;;;11.65;5.45;;;;;;;7.42;100.00;100485.84;6117103;23;20013;-77
2023/03/12 11:35:16;;;;;;;6.03;5.63;;;;;;;7.71;100.00;100478.53;6108353;23;20029;-78
2023/03/12 11:37:59;;;;;;;4.55;4.30;;;;;;;8.01;100.00;100488.53;6113698;23;20088;-78
2023/03/12 11:41:07;;;;;;;5.00;4.55;;;;;;;8.24;100.00;100475.28;6095064;23;20068;-78
2023/03/12 11:43:46;;;;;;;7.68;5.13;;;;;;;8.31;100.00;100474.06;6059319;23;20271;-78